Cornholme, United Kingdom
Current Conditions -  °F | °C
As of 7:20 AM on Monday 22 Dec 2014 (Local Time) from EGNM Reporting Station
Light Rain Light Rain  
Wind Chill: 11°   Ceiling: 1800
Heat Index: 11°   Visibility: 6mi
Dew Point:   Wind: 37mph
Humidity: 88%   Direction: 260°W
Pressure: 29.65"   Gusts: 55mph
Location:  53.73°N, 2.14°W
Report Text: EGNM 220720Z 26032G48KT 9999 -RA BKN018 11/09 Q1004
Loading
Personal Weather Stations






























Interactive Weather Map New forecast layout! Learn more

10-Day Weather Forecast

Advertisements
Track Severe Weather on mobile